Hovedside
METAR-TAF:

METAR-TAF

Lufthavner :

Caldwell Industrial Airport

Caldwell, Idaho, USA

breddegrad: 43-38N, lengdegrad: 116-38W, høyde over havet: 740 m

METAR: fraværende

Tid: 22:39 (05:39 UTC)

Varsel

Denne rapporten ble laget for 6 timer og 19 minutter siden, klokken 23:20 UTC
Varsel gyldig fra 18. klokken 00 UTC til 18. klokken 24 UTC
Vind 2 kt fra skiftende retning
Sikt: 10 km
Spredte skyer i en høyde av 8000 ft
Brutte skyer i en høyde av 15000 ft
Fra 18. klokken 0100 UTC
Vind 5 kt fra Sørøst
Sikt: 10 km
Overskyet i en høyde av 5000 ft
Fra 18. klokken 2000 UTC
Vind 7 kt fra Sørøst
Sikt: 10 km
Overskyet i en høyde av 1500 ft

TAF: KEUL 172320Z 1800/1824 VRB02KT P6SM SCT080 BKN150 FM180100 13005KT P6SM OVC050 FM182000 13007KT P6SM OVC015 AMD NOT SKED

Værobservasjoner og værvarsel for over 4000 flyplasser (METAR- og TAF-rapporter).

Tilgjengelige stasjoner er representert av de røde og gule prikkene på kartet.

Hold musepekeren over prikken for å se navnet på stasjonen.

Klikk så for å se værobservasjoner og -varsler.

For å forandre kartet kan du klikke på den grønne knappen med svart kryss for å zoome inn, på den grønne knappen med strek for å zoome ut, eller på de grønne pilene for å se tilstøtende kart.


METAR-TAF: